Time;durP1;ratioP1;P1;durP2;ratioP2;P2;SDS_P1;SDS_P2;PMS_P1;PMS_P2;Temp;Humidity;BMP_temperature;BMP_pressure;BME280_temperature;BME280_humidity;BME280_pressure;Samples;Min_cycle;Max_cycle;Signal;HPM_P1;HPM_P2
2022/04/20 00:01:10;;;;;;;25.13;8.23;;;12.60;20.70;;;;;;5134627;27;20410;-68
2022/04/20 00:03:37;;;;;;;13.27;8.57;;;12.30;21.60;;;;;;5134401;27;20204;-65
2022/04/20 00:06:03;;;;;;;11.37;7.83;;;12.40;22.30;;;;;;5133902;27;20252;-66
2022/04/20 00:08:29;;;;;;;12.20;8.37;;;12.30;22.30;;;;;;5134328;27;20506;-66
2022/04/20 00:10:55;;;;;;;20.63;8.53;;;12.60;22.40;;;;;;5134406;27;20172;-65
2022/04/20 00:13:21;;;;;;;17.37;8.30;;;12.70;22.60;;;;;;5134470;27;20430;-66
2022/04/20 00:15:46;;;;;;;15.53;9.03;;;12.80;21.90;;;;;;5134072;27;20198;-68
2022/04/20 00:18:12;;;;;;;18.23;9.80;;;12.50;22.10;;;;;;5133753;27;20189;-66
2022/04/20 00:20:37;;;;;;;13.13;9.30;;;12.30;22.80;;;;;;5134286;27;20201;-65
2022/04/20 00:23:03;;;;;;;14.07;9.43;;;12.40;22.90;;;;;;5134057;27;20651;-66
2022/04/20 00:25:29;;;;;;;16.37;9.67;;;12.80;22.30;;;;;;5133917;27;20173;-68
2022/04/20 00:27:54;;;;;;;14.50;9.60;;;13.10;22.70;;;;;;5133938;27;20237;-68
2022/04/20 00:30:20;;;;;;;16.40;9.60;;;13.20;21.10;;;;;;5134077;27;20184;-66
2022/04/20 00:32:46;;;;;;;15.80;9.23;;;12.70;21.80;;;;;;5115306;27;20181;-66
2022/04/20 00:35:11;;;;;;;13.47;9.30;;;12.60;22.60;;;;;;5133949;27;20188;-66
2022/04/20 00:37:39;;;;;;;18.97;10.67;;;12.70;22.90;;;;;;5133378;27;20239;-67
2022/04/20 00:40:06;;;;;;;14.93;9.80;;;12.80;23.70;;;;;;5133588;27;20181;-68
2022/04/20 00:42:32;;;;;;;20.23;9.57;;;13.00;21.30;;;;;;5133773;27;20439;-66
2022/04/20 00:44:58;;;;;;;16.50;8.90;;;12.40;21.70;;;;;;5133595;27;20451;-66
2022/04/20 00:47:24;;;;;;;13.27;8.83;;;12.40;22.20;;;;;;5133605;27;20448;-67
2022/04/20 00:49:51;;;;;;;13.27;8.30;;;12.80;21.90;;;;;;5133497;27;20177;-66
2022/04/20 00:52:17;;;;;;;12.80;8.70;;;12.40;21.10;;;;;;5133288;27;20407;-66
2022/04/20 00:54:43;;;;;;;15.83;8.20;;;12.30;21.60;;;;;;5133608;27;21001;-66
2022/04/20 00:57:09;;;;;;;15.43;8.83;;;11.90;22.10;;;;;;5132985;27;20451;-65
2022/04/20 00:59:36;;;;;;;12.37;8.50;;;11.80;21.70;;;;;;5133628;27;20754;-65
2022/04/20 01:02:03;;;;;;;16.17;9.20;;;11.90;22.30;;;;;;5133516;27;20437;-65
2022/04/20 01:04:30;;;;;;;12.80;8.50;;;11.80;21.90;;;;;;5133613;27;20474;-65
2022/04/20 01:07:08;;;;;;;23.23;8.30;;;12.00;22.00;;;;;;5132960;27;20426;-66
2022/04/20 01:09:33;;;;;;;11.67;8.23;;;12.10;22.20;;;;;;5133119;27;20662;-66
2022/04/20 01:11:59;;;;;;;15.43;9.20;;;12.20;21.70;;;;;;5132774;27;20661;-66
2022/04/20 01:14:25;;;;;;;14.87;8.30;;;12.50;22.90;;;;;;5114380;27;20277;-65
2022/04/20 01:16:50;;;;;;;14.23;8.70;;;12.00;23.10;;;;;;5132968;27;20176;-66
2022/04/20 01:19:16;;;;;;;14.40;8.80;;;12.40;21.80;;;;;;5132317;27;20184;-67
2022/04/20 01:21:42;;;;;;;21.93;9.23;;;12.60;21.30;;;;;;5132954;27;20651;-65
2022/04/20 01:24:07;;;;;;;14.50;8.30;;;12.70;22.20;;;;;;5132839;27;20189;-66
2022/04/20 01:26:34;;;;;;;14.43;8.53;;;12.10;21.30;;;;;;5126781;27;20256;-66
2022/04/20 01:29:02;;;;;;;15.83;7.80;;;12.20;22.20;;;;;;5129455;27;20181;-66
2022/04/20 01:31:29;;;;;;;11.13;7.93;;;12.40;22.50;;;;;;5132892;27;20442;-65
2022/04/20 01:33:55;;;;;;;15.07;8.70;;;12.50;21.60;;;;;;5132445;27;20458;-66
2022/04/20 01:36:21;;;;;;;12.00;8.10;;;12.40;21.70;;;;;;5130756;27;20518;-65
2022/04/20 01:38:46;;;;;;;12.67;7.93;;;12.10;22.10;;;;;;5131487;27;20197;-68
2022/04/20 01:41:12;;;;;;;17.43;8.80;;;12.00;21.50;;;;;;5132647;27;20188;-65
2022/04/20 01:43:38;;;;;;;17.10;9.13;;;11.90;23.80;;;;;;5132645;27;20191;-65
2022/04/20 01:46:03;;;;;;;19.33;8.97;;;12.10;23.00;;;;;;5114402;27;20328;-66
2022/04/20 01:48:29;;;;;;;12.80;7.80;;;12.40;21.80;;;;;;5132786;27;20200;-66
2022/04/20 01:53:39;;;;;;;12.97;7.90;;;12.60;20.70;;;;;;5132349;27;20262;-66
2022/04/20 01:56:06;;;;;;;13.60;8.40;;;12.70;20.70;;;;;;5132702;27;20415;-66
2022/04/20 01:58:34;;;;;;;11.60;7.60;;;12.70;20.80;;;;;;5132522;28;20207;-66
2022/04/20 02:01:00;;;;;;;11.43;7.90;;;12.20;20.50;;;;;;5113683;28;20438;-65
2022/04/20 02:03:26;;;;;;;13.17;7.50;;;12.00;21.10;;;;;;5132323;28;20454;-66
2022/04/20 02:05:52;;;;;;;13.37;8.10;;;11.70;22.20;;;;;;5132344;28;20406;-65
2022/04/20 02:08:18;;;;;;;12.70;7.77;;;11.40;22.60;;;;;;5132309;28;20411;-65
2022/04/20 02:10:44;;;;;;;14.63;7.70;;;11.80;22.30;;;;;;5132385;28;20410;-69
2022/04/20 02:13:10;;;;;;;11.33;7.57;;;11.70;22.10;;;;;;5113511;28;20442;-66
2022/04/20 02:15:36;;;;;;;13.50;7.87;;;11.70;22.80;;;;;;5132502;28;20410;-66
2022/04/20 02:18:02;;;;;;;10.57;6.90;;;11.80;22.60;;;;;;5132516;28;20566;-66
2022/04/20 02:20:28;;;;;;;11.70;8.00;;;11.80;20.80;;;;;;5132544;28;20402;-67
2022/04/20 02:22:53;;;;;;;10.60;6.80;;;11.70;21.20;;;;;;5131814;28;20522;-65
2022/04/20 02:25:19;;;;;;;15.17;7.90;;;11.90;21.90;;;;;;5114016;28;20172;-68
2022/04/20 02:27:45;;;;;;;14.37;7.90;;;12.10;20.70;;;;;;5132118;28;20180;-66
2022/04/20 02:30:11;;;;;;;11.47;7.47;;;12.30;22.00;;;;;;5135157;27;20215;-66
2022/04/20 02:32:36;;;;;;;11.65;7.60;;;11.90;21.90;;;;;;5135868;27;20222;-65
2022/04/20 02:37:30;;;;;;;13.30;7.75;;;11.90;21.50;;;;;;5088689;28;20738;-72
2022/04/20 02:39:56;;;;;;;10.53;7.27;;;11.80;22.80;;;;;;5091145;28;20212;-70
2022/04/20 02:42:21;;;;;;;15.50;7.13;;;12.00;21.80;;;;;;5094711;28;20578;-71
2022/04/20 02:44:47;;;;;;;21.43;7.23;;;11.80;22.20;;;;;;5093223;28;20442;-70
2022/04/20 02:47:16;;;;;;;10.10;6.80;;;11.60;20.20;;;;;;5114787;28;20426;-71
2022/04/20 02:49:41;;;;;;;10.32;6.45;;;11.40;19.80;;;;;;5115395;28;20169;-71
2022/04/20 02:52:07;;;;;;;10.57;6.50;;;11.20;21.80;;;;;;5114833;28;20643;-71
2022/04/20 02:54:33;;;;;;;10.55;6.75;;;11.20;21.20;;;;;;5108598;28;20169;-70
2022/04/20 02:56:58;;;;;;;14.30;6.90;;;11.70;20.50;;;;;;5105695;28;20204;-71
2022/04/20 02:59:24;;;;;;;10.57;6.80;;;11.60;21.40;;;;;;5114915;28;20654;-70
2022/04/20 03:01:50;;;;;;;11.27;6.47;;;11.50;21.60;;;;;;5114859;28;20170;-70
2022/04/20 03:04:16;;;;;;;9.30;6.03;;;11.50;22.70;;;;;;5115011;28;20560;-70
2022/04/20 03:06:41;;;;;;;11.03;6.60;;;11.50;21.90;;;;;;5112777;28;20466;-70
2022/04/20 03:09:07;;;;;;;14.10;7.33;;;11.00;21.70;;;;;;5114939;28;20181;-71
2022/04/20 03:11:33;;;;;;;14.50;8.17;;;11.00;21.30;;;;;;5114655;28;20166;-73
2022/04/20 03:13:58;;;;;;;11.57;7.23;;;11.10;22.20;;;;;;5114409;28;20170;-72
2022/04/20 03:16:24;;;;;;;11.27;7.50;;;11.00;22.90;;;;;;5104102;28;20587;-71
2022/04/20 03:18:50;;;;;;;15.10;7.80;;;11.20;21.80;;;;;;5094977;28;20206;-71
2022/04/20 03:21:15;;;;;;;11.47;7.13;;;11.20;22.40;;;;;;5094418;28;20178;-71
2022/04/20 03:23:41;;;;;;;10.87;7.23;;;11.10;22.70;;;;;;5093784;28;20414;-71
2022/04/20 03:26:08;;;;;;;12.40;7.30;;;11.00;22.50;;;;;;5095491;28;20282;-70
2022/04/20 03:28:33;;;;;;;11.88;7.68;;;11.10;22.70;;;;;;5114570;28;20171;-72
2022/04/20 03:31:00;;;;;;;9.67;6.43;;;11.00;24.10;;;;;;5114506;28;20242;-72
2022/04/20 03:33:25;;;;;;;11.98;7.10;;;10.60;23.10;;;;;;5114106;28;20403;-72
2022/04/20 03:35:51;;;;;;;10.50;7.07;;;10.70;24.50;;;;;;5113989;28;20709;-70
2022/04/20 03:38:17;;;;;;;16.20;7.70;;;10.90;22.90;;;;;;5112548;28;20450;-71
2022/04/20 03:40:43;;;;;;;10.60;7.60;;;11.00;23.40;;;;;;5113451;28;20198;-72
2022/04/20 03:43:08;;;;;;;10.43;6.93;;;11.00;24.70;;;;;;5095915;28;20236;-71
2022/04/20 03:45:34;;;;;;;12.00;7.40;;;10.90;22.40;;;;;;5113993;28;20205;-71
2022/04/20 03:48:00;;;;;;;13.13;7.57;;;10.90;23.20;;;;;;5089422;28;20536;-73
2022/04/20 03:50:26;;;;;;;10.13;7.10;;;11.20;22.10;;;;;;5093710;28;20170;-71
2022/04/20 03:52:52;;;;;;;11.27;7.37;;;11.00;22.70;;;;;;5093379;28;20747;-71
2022/04/20 03:55:17;;;;;;;11.50;7.40;;;10.90;23.30;;;;;;5093484;28;20710;-72
2022/04/20 03:57:43;;;;;;;11.83;7.60;;;10.90;24.00;;;;;;5093356;28;20230;-71
2022/04/20 04:00:10;;;;;;;12.00;7.10;;;10.80;23.50;;;;;;5111715;28;20178;-71
2022/04/20 04:02:35;;;;;;;12.13;7.38;;;10.90;22.80;;;;;;5113513;28;20498;-71
2022/04/20 04:05:01;;;;;;;11.60;7.50;;;10.70;22.40;;;;;;5113735;28;20249;-71
2022/04/20 04:07:27;;;;;;;13.90;7.23;;;10.70;24.30;;;;;;5113155;28;20205;-71
2022/04/20 04:09:52;;;;;;;13.00;7.13;;;10.80;22.70;;;;;;5102657;28;20458;-71
2022/04/20 04:12:24;;;;;;;20.70;7.87;;;10.80;22.30;;;;;;5093197;28;20167;-73
2022/04/20 04:14:50;;;;;;;15.68;8.32;;;10.60;24.10;;;;;;5092847;28;20256;-70
2022/04/20 04:17:16;;;;;;;13.23;7.40;;;10.30;24.40;;;;;;5093159;28;20203;-70
2022/04/20 04:19:42;;;;;;;12.30;8.13;;;10.40;24.50;;;;;;5096069;28;20703;-74
2022/04/20 04:22:07;;;;;;;13.87;7.93;;;10.30;25.10;;;;;;5113363;28;20170;-71
2022/04/20 04:24:36;;;;;;;17.77;8.17;;;10.30;24.00;;;;;;5113458;28;20162;-71
2022/04/20 04:27:05;;;;;;;15.13;9.43;;;10.30;24.70;;;;;;5113508;28;20209;-70
2022/04/20 04:29:31;;;;;;;15.10;8.43;;;10.10;24.50;;;;;;5113623;28;20171;-70
2022/04/20 04:31:58;;;;;;;13.93;9.05;;;10.30;24.30;;;;;;5111448;28;20170;-72
2022/04/20 04:34:24;;;;;;;13.68;9.15;;;10.40;23.70;;;;;;5113165;28;20186;-71
2022/04/20 04:36:54;;;;;;;15.37;9.30;;;10.20;25.30;;;;;;5112215;28;20307;-71
2022/04/20 04:39:23;;;;;;;20.83;9.70;;;10.20;25.10;;;;;;5113241;28;20423;-71
2022/04/20 04:41:51;;;;;;;15.55;10.13;;;10.20;25.80;;;;;;5102486;28;20252;-71
2022/04/20 04:44:19;;;;;;;19.60;10.00;;;10.00;25.90;;;;;;5092692;28;20175;-74
2022/04/20 04:49:29;;;;;;;20.02;10.77;;;10.20;26.20;;;;;;5092667;28;20240;-71
2022/04/20 04:51:56;;;;;;;17.60;10.60;;;10.40;25.70;;;;;;5097345;28;20255;-71
2022/04/20 04:54:22;;;;;;;20.38;11.38;;;10.30;26.00;;;;;;5112092;28;20175;-72
2022/04/20 04:56:48;;;;;;;27.15;10.85;;;10.20;27.20;;;;;;5112693;28;20201;-70
2022/04/20 04:59:13;;;;;;;21.50;10.70;;;10.20;27.20;;;;;;5112598;28;20197;-71
2022/04/20 05:01:39;;;;;;;23.20;10.47;;;10.10;27.30;;;;;;5112482;28;20163;-70
2022/04/20 05:04:05;;;;;;;16.27;10.47;;;10.10;26.90;;;;;;5094309;28;20171;-70
2022/04/20 05:06:31;;;;;;;17.83;10.70;;;10.20;26.40;;;;;;5091593;28;20234;-71
2022/04/20 05:08:57;;;;;;;18.63;10.73;;;10.40;26.10;;;;;;5092251;28;20174;-71
2022/04/20 05:11:22;;;;;;;22.30;10.70;;;10.40;27.60;;;;;;5092100;28;20400;-72
2022/04/20 05:13:48;;;;;;;19.00;11.20;;;10.40;27.10;;;;;;5101616;28;20243;-71
2022/04/20 05:16:13;;;;;;;18.03;11.17;;;10.40;26.50;;;;;;5111757;28;20299;-71
2022/04/20 05:18:39;;;;;;;23.70;11.87;;;10.30;25.90;;;;;;5112014;28;20230;-70
2022/04/20 05:21:05;;;;;;;19.23;11.20;;;10.10;26.30;;;;;;5112523;28;20701;-70
2022/04/20 05:23:31;;;;;;;24.40;12.47;;;10.40;26.90;;;;;;5093941;28;20174;-71
2022/04/20 05:25:57;;;;;;;27.20;10.23;;;10.40;26.10;;;;;;5112403;28;20813;-71
2022/04/20 05:28:22;;;;;;;17.00;9.83;;;10.50;26.50;;;;;;5097033;28;20252;-77
2022/04/20 05:30:48;;;;;;;14.87;9.30;;;10.40;26.70;;;;;;5112364;28;20186;-74
2022/04/20 05:33:14;;;;;;;14.07;9.20;;;10.30;26.50;;;;;;5112164;28;20232;-74
2022/04/20 05:35:40;;;;;;;17.47;9.90;;;10.50;26.20;;;;;;5111906;28;20580;-74
2022/04/20 05:43:35;;;;;;;21.42;9.57;;;10.70;24.90;;;;;;5092035;28;20208;-74
2022/04/20 05:46:01;;;;;;;17.65;9.90;;;10.80;24.20;;;;;;5107225;28;20281;-75
2022/04/20 05:48:27;;;;;;;22.87;9.80;;;10.80;25.00;;;;;;5092197;28;20243;-73
2022/04/20 05:50:52;;;;;;;15.38;9.65;;;11.10;24.80;;;;;;5092054;28;20182;-71
2022/04/20 05:53:18;;;;;;;17.47;9.03;;;11.30;23.70;;;;;;5091973;28;20218;-71
2022/04/20 05:55:44;;;;;;;17.07;8.90;;;11.50;22.90;;;;;;5091656;28;20300;-71
2022/04/20 05:58:10;;;;;;;20.23;9.17;;;11.20;23.50;;;;;;5092079;28;20254;-71
2022/04/20 06:00:36;;;;;;;21.42;11.32;;;11.30;23.60;;;;;;5092189;28;20167;-71
2022/04/20 06:03:01;;;;;;;18.80;11.30;;;11.20;23.50;;;;;;5091681;28;20173;-70
2022/04/20 06:05:27;;;;;;;19.60;10.97;;;11.30;24.10;;;;;;5094555;28;20217;-71
2022/04/20 06:07:53;;;;;;;26.07;10.97;;;11.80;24.70;;;;;;5097038;28;20210;-72
2022/04/20 06:10:19;;;;;;;27.60;11.03;;;11.90;23.50;;;;;;5077866;28;20645;-71
2022/04/20 06:12:44;;;;;;;19.57;10.63;;;11.60;24.30;;;;;;5095701;28;20409;-71
2022/04/20 06:15:10;;;;;;;17.30;10.87;;;11.60;22.80;;;;;;5095801;28;20170;-71
2022/04/20 06:17:36;;;;;;;24.20;10.00;;;11.90;23.20;;;;;;5102598;28;20201;-70
2022/04/20 06:20:02;;;;;;;49.33;11.90;;;12.10;22.30;;;;;;5114318;28;20271;-70
2022/04/20 06:22:27;;;;;;;25.10;10.33;;;12.00;22.00;;;;;;5115500;28;20162;-71
2022/04/20 06:24:53;;;;;;;36.07;10.03;;;12.00;22.70;;;;;;5097284;28;20422;-70
2022/04/20 06:27:19;;;;;;;16.50;10.30;;;12.30;21.90;;;;;;5115725;28;20280;-69
2022/04/20 06:29:45;;;;;;;26.67;10.20;;;12.10;22.30;;;;;;5105827;28;20428;-69
2022/04/20 06:32:11;;;;;;;15.13;9.60;;;12.20;22.60;;;;;;5096254;28;20171;-70
2022/04/20 06:34:36;;;;;;;20.83;9.70;;;12.20;22.40;;;;;;5097705;28;20404;-71
2022/04/20 06:37:05;;;;;;;24.00;10.47;;;12.50;21.40;;;;;;5114790;28;20246;-71
2022/04/20 06:39:31;;;;;;;25.10;10.85;;;12.60;22.80;;;;;;5110822;28;20260;-70
2022/04/20 06:41:57;;;;;;;31.57;9.87;;;12.70;22.00;;;;;;5094731;28;20312;-70
2022/04/20 06:44:22;;;;;;;23.73;9.40;;;12.50;20.80;;;;;;5094754;28;20162;-70
2022/04/20 06:46:48;;;;;;;24.90;10.10;;;11.50;22.20;;;;;;5095122;28;20599;-69
2022/04/20 06:49:14;;;;;;;15.50;8.83;;;11.20;24.10;;;;;;5095146;28;20791;-70
2022/04/20 06:59:53;;;;;;;30.57;9.40;;;12.50;20.60;;;;;;5094851;28;20434;-70
2022/04/20 07:02:21;;;;;;;22.13;9.03;;;12.40;21.60;;;;;;5110417;28;20764;-70
2022/04/20 07:04:47;;;;;;;12.67;8.10;;;12.00;22.40;;;;;;5114895;28;20460;-70
2022/04/20 07:07:12;;;;;;;16.93;8.20;;;12.50;21.40;;;;;;5112343;28;20798;-70
2022/04/20 07:09:38;;;;;;;14.57;8.10;;;12.80;20.80;;;;;;5100063;28;20439;-70
2022/04/20 07:12:04;;;;;;;12.07;8.10;;;13.00;20.60;;;;;;5094448;28;20420;-70
2022/04/20 07:14:30;;;;;;;16.23;7.37;;;12.90;20.90;;;;;;5094660;28;20638;-70
2022/04/20 07:16:55;;;;;;;17.97;7.90;;;13.40;20.20;;;;;;5094985;28;21095;-70
2022/04/20 07:19:21;;;;;;;11.10;7.50;;;13.70;19.70;;;;;;5104186;28;20198;-71
2022/04/20 07:21:47;;;;;;;11.73;7.30;;;13.50;19.00;;;;;;5116961;28;20257;-72
2022/04/20 07:24:13;;;;;;;11.30;7.20;;;12.90;19.90;;;;;;5116291;28;20403;-71
2022/04/20 07:26:38;;;;;;;9.40;6.80;;;12.90;20.90;;;;;;5114908;28;20247;-71
2022/04/20 07:29:04;;;;;;;10.70;7.20;;;12.80;20.90;;;;;;5114330;28;20177;-71
2022/04/20 07:31:29;;;;;;;11.30;7.30;;;12.80;20.50;;;;;;5094756;28;20220;-71
2022/04/20 07:33:55;;;;;;;10.83;6.60;;;12.90;19.50;;;;;;5094114;28;20183;-70
2022/04/20 07:36:21;;;;;;;15.70;6.67;;;13.10;19.10;;;;;;5093653;28;20299;-71
2022/04/20 07:38:48;;;;;;;13.70;7.80;;;13.20;18.90;;;;;;5093784;28;20203;-70
2022/04/20 07:41:14;;;;;;;9.70;6.60;;;13.10;18.40;;;;;;5105918;28;20469;-71
2022/04/20 07:43:40;;;;;;;8.33;6.13;;;12.90;18.80;;;;;;5114137;28;20411;-72
2022/04/20 07:46:06;;;;;;;10.50;7.17;;;12.60;19.40;;;;;;5114042;28;20424;-72
2022/04/20 07:48:32;;;;;;;9.07;6.60;;;12.70;19.30;;;;;;5093014;28;20202;-70
2022/04/20 07:51:00;;;;;;;8.60;6.17;;;12.90;19.10;;;;;;5114102;28;20200;-69
2022/04/20 07:53:26;;;;;;;9.77;6.87;;;13.30;18.80;;;;;;5114012;28;20174;-70
2022/04/20 07:55:52;;;;;;;12.33;6.60;;;13.70;18.80;;;;;;5113784;28;20458;-71
2022/04/20 07:58:17;;;;;;;17.63;6.83;;;12.90;20.00;;;;;;5127582;28;20269;-71
2022/04/20 08:00:44;;;;;;;8.87;6.70;;;13.70;19.00;;;;;;5113825;28;20180;-70
2022/04/20 08:03:14;;;;;;;11.57;6.70;;;14.00;17.60;;;;;;5114004;28;20265;-71
2022/04/20 08:05:41;;;;;;;9.93;7.30;;;13.60;17.10;;;;;;5106766;28;20433;-70
2022/04/20 08:08:08;;;;;;;11.67;6.97;;;13.20;18.80;;;;;;5094700;28;20425;-71
2022/04/20 08:10:33;;;;;;;11.33;7.07;;;13.50;18.90;;;;;;5093210;28;20473;-71
2022/04/20 08:12:59;;;;;;;10.00;7.07;;;14.40;17.80;;;;;;5093202;28;20899;-70
2022/04/20 08:15:25;;;;;;;11.50;6.47;;;13.90;18.70;;;;;;5093077;28;20211;-71
2022/04/20 08:17:50;;;;;;;12.13;7.00;;;13.40;17.80;;;;;;5106970;28;20365;-72
2022/04/20 08:20:16;;;;;;;10.03;6.60;;;13.80;18.00;;;;;;5113676;28;20542;-70
2022/04/20 08:22:43;;;;;;;10.10;7.00;;;14.40;17.20;;;;;;5113270;28;20260;-70
2022/04/20 08:25:11;;;;;;;14.20;7.37;;;14.60;17.20;;;;;;5113588;28;20196;-71
2022/04/20 08:27:37;;;;;;;11.17;7.00;;;14.00;17.80;;;;;;5110095;28;20486;-70
2022/04/20 08:30:04;;;;;;;9.80;6.90;;;14.30;18.00;;;;;;5113433;28;20873;-70
2022/04/20 08:32:30;;;;;;;10.80;6.90;;;14.50;17.20;;;;;;5112905;28;20425;-70
2022/04/20 08:34:56;;;;;;;13.70;7.40;;;14.70;16.40;;;;;;5113287;28;20889;-70
2022/04/20 08:37:21;;;;;;;13.13;6.90;;;14.90;17.20;;;;;;5113116;28;20211;-70
2022/04/20 08:39:47;;;;;;;11.27;7.43;;;14.80;18.10;;;;;;5094643;28;20246;-71
2022/04/20 08:42:16;;;;;;;15.20;6.90;;;14.80;17.70;;;;;;5092387;28;20170;-71
2022/04/20 08:44:46;;;;;;;10.93;6.87;;;14.70;17.10;;;;;;5105295;28;20528;-71
2022/04/20 08:47:26;;;;;;;10.60;6.90;;;14.10;18.20;;;;;;5101372;28;20591;-71
2022/04/20 08:49:52;;;;;;;13.00;7.60;;;14.40;19.30;;;;;;5104030;28;20408;-71
2022/04/20 08:52:37;;;;;;;10.70;7.80;;;14.80;17.70;;;;;;5107335;28;20429;-73
2022/04/20 08:55:11;;;;;;;11.60;7.77;;;14.90;16.80;;;;;;5092488;28;20158;-70
2022/04/20 08:57:38;;;;;;;10.73;6.93;;;14.80;17.50;;;;;;5098972;28;20820;-72
2022/04/20 09:00:07;;;;;;;11.90;7.50;;;15.30;16.50;;;;;;5112304;28;20427;-72
2022/04/20 09:02:32;;;;;;;11.93;7.40;;;15.20;16.70;;;;;;5111001;28;20430;-71
2022/04/20 09:04:58;;;;;;;10.97;7.00;;;15.20;16.80;;;;;;5108100;28;20765;-71
2022/04/20 09:07:25;;;;;;;9.53;6.70;;;15.50;17.10;;;;;;5091721;28;20421;-71
2022/04/20 09:09:51;;;;;;;16.00;7.17;;;14.50;16.90;;;;;;5095026;28;20927;-70
2022/04/20 09:12:19;;;;;;;14.07;7.50;;;15.00;17.10;;;;;;5091717;28;20424;-70
2022/04/20 09:14:50;;;;;;;15.23;7.20;;;11.70;14.00;;;;;;5093297;28;20181;-70
2022/04/20 09:17:17;;;;;;;10.90;6.70;;;15.30;16.00;;;;;;5103050;28;20928;-69
2022/04/20 09:19:48;;;;;;;13.33;7.00;;;15.00;16.10;;;;;;5107599;28;20444;-71
2022/04/20 09:22:29;;;;;;;10.37;7.40;;;15.10;16.30;;;;;;5092769;28;20399;-71
2022/04/20 09:25:08;;;;;;;11.03;7.70;;;15.70;15.70;;;;;;5098736;28;20412;-72
2022/04/20 09:27:37;;;;;;;10.87;7.87;;;15.90;14.50;;;;;;5097841;28;20831;-72
2022/04/20 09:30:08;;;;;;;10.40;7.73;;;16.10;16.00;;;;;;5093143;28;20429;-72
2022/04/20 09:32:39;;;;;;;10.70;6.73;;;16.00;14.90;;;;;;5091511;28;20409;-74
2022/04/20 09:35:10;;;;;;;10.17;6.90;;;16.00;13.90;;;;;;5108844;28;20427;-72
2022/04/20 09:37:36;;;;;;;10.93;7.03;;;16.30;14.50;;;;;;5099795;28;20962;-71
2022/04/20 09:40:05;;;;;;;10.70;7.10;;;16.60;15.50;;;;;;5108671;28;20443;-72
2022/04/20 09:42:31;;;;;;;10.43;7.27;;;16.70;14.20;;;;;;5110829;28;20408;-73
2022/04/20 09:45:04;;;;;;;12.57;7.60;;;16.60;14.40;;;;;;5110772;28;20446;-72
2022/04/20 09:50:29;;;;;;;12.27;7.30;;;16.90;14.40;;;;;;5107003;28;20545;-71
2022/04/20 09:52:58;;;;;;;13.20;8.10;;;16.60;14.90;;;;;;5094939;28;20456;-71
2022/04/20 09:55:32;;;;;;;12.47;7.33;;;16.00;15.00;;;;;;5097331;28;20542;-73
2022/04/20 09:58:19;;;;;;;14.00;8.20;;;16.70;14.90;;;;;;5089419;28;20551;-76
2022/04/20 10:00:52;;;;;;;12.40;7.90;;;16.70;15.10;;;;;;5111884;28;20481;-72
2022/04/20 10:03:31;;;;;;;11.03;7.20;;;17.10;14.40;;;;;;5110697;28;20492;-74
2022/04/20 10:05:58;;;;;;;11.23;6.97;;;17.40;14.90;;;;;;5100332;28;20466;-72
2022/04/20 10:08:24;;;;;;;11.03;7.70;;;17.30;15.20;;;;;;5099686;28;20550;-73
2022/04/20 10:10:52;;;;;;;14.50;7.60;;;17.20;14.50;;;;;;5098811;28;20412;-72
2022/04/20 10:13:18;;;;;;;13.40;7.17;;;17.30;15.40;;;;;;5100329;28;20180;-72
2022/04/20 10:18:31;;;;;;;9.33;7.07;;;17.30;14.10;;;;;;5091231;28;20816;-72
2022/04/20 10:20:59;;;;;;;16.60;7.00;;;16.60;14.90;;;;;;5091304;28;20412;-72
2022/04/20 10:23:29;;;;;;;10.43;7.27;;;16.20;16.30;;;;;;5091101;28;20405;-72
2022/04/20 10:25:56;;;;;;;12.40;6.70;;;16.90;14.40;;;;;;5092388;28;20439;-73
2022/04/20 10:29:08;;;;;;;7.83;6.23;;;17.60;14.30;;;;;;5091893;28;20431;-72
2022/04/20 10:31:53;;;;;;;14.10;6.50;;;18.10;11.90;;;;;;5091260;28;20393;-72
2022/04/20 10:34:19;;;;;;;8.30;6.57;;;17.80;15.80;;;;;;5091431;28;20453;-73
2022/04/20 10:36:59;;;;;;;19.13;7.10;;;17.90;13.30;;;;;;5090899;28;20483;-73
2022/04/20 10:39:27;;;;;;;9.87;6.70;;;18.50;12.40;;;;;;5091826;28;20953;-73
2022/04/20 10:42:11;;;;;;;17.53;7.60;;;18.40;11.80;;;;;;5090984;28;20460;-73
2022/04/20 10:45:07;;;;;;;10.70;6.63;;;18.30;12.50;;;;;;5091105;28;20541;-72
2022/04/20 10:47:35;;;;;;;10.40;6.37;;;18.20;13.40;;;;;;5008901;28;20460;-75
2022/04/20 10:50:28;;;;;;;10.00;6.80;;;19.00;11.50;;;;;;5011324;28;20425;-72
2022/04/20 10:53:04;;;;;;;12.93;6.60;;;19.40;11.80;;;;;;5013902;28;20940;-72
2022/04/20 10:55:30;;;;;;;11.87;6.70;;;18.50;11.20;;;;;;5013800;28;20433;-72
2022/04/20 10:57:56;;;;;;;10.97;6.37;;;19.00;11.60;;;;;;5013308;28;20475;-72
2022/04/20 11:00:22;;;;;;;9.17;6.73;;;19.10;10.70;;;;;;4998199;28;20185;-72
2022/04/20 11:02:53;;;;;;;11.80;6.40;;;19.30;10.60;;;;;;5033623;28;20431;-72
2022/04/20 11:05:24;;;;;;;8.60;6.17;;;19.60;11.60;;;;;;5034866;28;20439;-73
2022/04/20 11:08:12;;;;;;;19.43;6.60;;;19.30;10.90;;;;;;5032093;28;20453;-72
2022/04/20 11:10:43;;;;;;;12.60;6.63;;;20.00;9.70;;;;;;5031847;28;20419;-72
2022/04/20 11:19:05;;;;;;;8.37;6.27;;;20.00;11.90;;;;;;5031797;28;20452;-72
2022/04/20 11:21:31;;;;;;;7.90;6.57;;;21.10;11.00;;;;;;5032471;28;20446;-73
2022/04/20 11:24:08;;;;;;;7.37;5.73;;;22.10;7.40;;;;;;5074928;28;20831;-72
2022/04/20 11:26:41;;;;;;;12.03;6.10;;;23.10;7.30;;;;;;5117518;28;20427;-72
2022/04/20 11:29:11;;;;;;;11.27;6.70;;;23.40;8.80;;;;;;5108499;28;20422;-72
2022/04/20 11:31:42;;;;;;;10.20;6.93;;;23.90;7.10;;;;;;5094340;28;20446;-72
2022/04/20 11:34:10;;;;;;;8.67;5.40;;;25.00;7.50;;;;;;5112736;28;20427;-74
2022/04/20 11:36:42;;;;;;;12.30;5.50;;;24.40;5.00;;;;;;5114077;28;20542;-72
2022/04/20 11:39:09;;;;;;;9.17;6.03;;;24.20;6.50;;;;;;5112490;28;20455;-73
2022/04/20 11:41:35;;;;;;;9.80;5.33;;;24.60;6.80;;;;;;5113798;28;20406;-73
2022/04/20 11:44:02;;;;;;;13.80;5.87;;;24.80;8.30;;;;;;5096057;28;20921;-72
2022/04/20 11:46:28;;;;;;;13.13;5.47;;;23.80;6.00;;;;;;5114134;28;20796;-72
2022/04/20 11:48:55;;;;;;;9.20;5.67;;;24.70;7.50;;;;;;5107841;28;20506;-73
2022/04/20 11:51:27;;;;;;;7.33;5.67;;;26.10;5.50;;;;;;5093693;28;20409;-73
2022/04/20 11:53:53;;;;;;;8.70;5.40;;;25.50;4.00;;;;;;5093713;28;20419;-73
2022/04/20 11:56:35;;;;;;;11.43;5.37;;;26.10;4.70;;;;;;5093937;28;20448;-73
2022/04/20 11:59:02;;;;;;;8.63;5.30;;;27.10;5.30;;;;;;5093522;28;20444;-74
2022/04/20 12:01:30;;;;;;;10.20;5.37;;;27.80;2.90;;;;;;5093197;28;20490;-73
2022/04/20 12:03:56;;;;;;;9.57;5.33;;;28.60;3.00;;;;;;5093632;28;20489;-73
2022/04/20 12:06:25;;;;;;;7.17;4.93;;;26.90;3.70;;;;;;5094234;28;20524;-73
2022/04/20 12:08:54;;;;;;;13.03;5.33;;;27.20;4.60;;;;;;5093340;28;20177;-73
2022/04/20 12:11:20;;;;;;;11.57;5.23;;;27.90;3.70;;;;;;5093530;28;20412;-73
2022/04/20 12:13:45;;;;;;;7.57;4.93;;;28.00;3.10;;;;;;5093337;28;20463;-74
2022/04/20 12:16:12;;;;;;;7.57;4.70;;;28.90;2.40;;;;;;5093089;28;20201;-73
2022/04/20 12:18:44;;;;;;;10.77;5.37;;;29.20;3.70;;;;;;5094143;28;20204;-74
2022/04/20 12:21:41;;;;;;;10.90;5.03;;;27.90;1.50;;;;;;5095349;28;20412;-74
2022/04/20 12:24:18;;;;;;;6.67;4.90;;;26.90;5.50;;;;;;5093741;28;20407;-75
2022/04/20 12:26:45;;;;;;;15.90;4.93;;;28.50;1.60;;;;;;5092997;28;20427;-74
2022/04/20 12:29:11;;;;;;;9.43;4.80;;;28.70;3.00;;;;;;5112005;28;20470;-73
2022/04/20 12:31:44;;;;;;;9.70;4.87;;;29.20;1.00;;;;;;5113418;28;20456;-74
2022/04/20 12:34:17;;;;;;;8.07;4.90;;;27.80;2.10;;;;;;5113159;28;20399;-73
2022/04/20 12:37:03;;;;;;;10.60;4.60;;;28.40;1.30;;;;;;5112877;28;20484;-73
2022/04/20 12:39:35;;;;;;;14.20;4.70;;;27.10;1.80;;;;;;5097966;28;20467;-74
2022/04/20 12:42:09;;;;;;;12.00;4.67;;;27.60;4.80;;;;;;5092638;28;20835;-73
2022/04/20 12:45:02;;;;;;;6.83;5.07;;;24.90;3.90;;;;;;5092564;28;20846;-74
2022/04/20 12:47:28;;;;;;;10.07;4.90;;;24.90;5.00;;;;;;5108296;28;20961;-73
2022/04/20 12:49:59;;;;;;;13.53;4.63;;;25.20;6.00;;;;;;5112856;28;20407;-75
2022/04/20 12:52:27;;;;;;;10.07;5.40;;;25.40;4.20;;;;;;5112804;28;20162;-73
2022/04/20 12:54:55;;;;;;;7.70;4.83;;;24.90;3.90;;;;;;5112622;28;20408;-73
2022/04/20 13:03:05;;;;;;;11.23;5.47;;;23.50;4.90;;;;;;5092472;28;20480;-73
2022/04/20 13:05:32;;;;;;;7.57;5.60;;;23.30;6.30;;;;;;5092071;28;20934;-74
2022/04/20 13:07:59;;;;;;;19.33;5.70;;;23.70;4.30;;;;;;5094814;28;20439;-73
2022/04/20 13:10:25;;;;;;;7.37;5.40;;;24.20;5.30;;;;;;5092287;28;20408;-74
2022/04/20 13:12:52;;;;;;;8.07;5.37;;;24.00;5.40;;;;;;5091883;28;20438;-74
2022/04/20 13:15:20;;;;;;;10.70;5.83;;;25.10;4.40;;;;;;5091351;28;20443;-73
2022/04/20 13:17:46;;;;;;;10.83;5.03;;;25.20;5.60;;;;;;5095198;28;20458;-74
2022/04/20 13:20:12;;;;;;;14.03;6.40;;;25.70;6.50;;;;;;5112479;28;20449;-74